sensor_id;sensor_type;location;lat;lon;timestamp;P1;durP1;ratioP1;P2;durP2;ratioP2
59492;SDS011;45497;43.996;22.876;2022-12-26T00:00:58;10.13;;;5.72;;
59492;SDS011;45497;43.996;22.876;2022-12-26T00:03:26;8.93;;;5.90;;
59492;SDS011;45497;43.996;22.876;2022-12-26T00:05:52;10.63;;;6.50;;
59492;SDS011;45497;43.996;22.876;2022-12-26T00:08:17;9.97;;;6.07;;
59492;SDS011;45497;43.996;22.876;2022-12-26T00:10:43;8.40;;;6.03;;
59492;SDS011;45497;43.996;22.876;2022-12-26T00:13:08;11.30;;;7.00;;
59492;SDS011;45497;43.996;22.876;2022-12-26T00:15:34;11.20;;;7.03;;
59492;SDS011;45497;43.996;22.876;2022-12-26T00:18:03;13.15;;;7.40;;
59492;SDS011;45497;43.996;22.876;2022-12-26T00:20:28;16.93;;;10.43;;
59492;SDS011;45497;43.996;22.876;2022-12-26T00:22:54;17.52;;;9.65;;
59492;SDS011;45497;43.996;22.876;2022-12-26T00:25:19;16.80;;;10.30;;
59492;SDS011;45497;43.996;22.876;2022-12-26T00:27:45;12.40;;;8.17;;
59492;SDS011;45497;43.996;22.876;2022-12-26T00:30:10;10.80;;;7.85;;
59492;SDS011;45497;43.996;22.876;2022-12-26T00:32:36;12.40;;;8.05;;
59492;SDS011;45497;43.996;22.876;2022-12-26T00:35:01;11.30;;;7.00;;
59492;SDS011;45497;43.996;22.876;2022-12-26T00:37:27;12.97;;;7.77;;
59492;SDS011;45497;43.996;22.876;2022-12-26T00:39:52;10.73;;;5.78;;
59492;SDS011;45497;43.996;22.876;2022-12-26T00:42:18;9.90;;;7.50;;
59492;SDS011;45497;43.996;22.876;2022-12-26T00:44:43;11.13;;;6.70;;
59492;SDS011;45497;43.996;22.876;2022-12-26T00:47:08;10.10;;;7.23;;
59492;SDS011;45497;43.996;22.876;2022-12-26T00:49:34;12.23;;;7.83;;
59492;SDS011;45497;43.996;22.876;2022-12-26T00:51:59;13.27;;;7.67;;
59492;SDS011;45497;43.996;22.876;2022-12-26T00:54:25;10.33;;;7.00;;
59492;SDS011;45497;43.996;22.876;2022-12-26T00:56:50;17.55;;;8.82;;
59492;SDS011;45497;43.996;22.876;2022-12-26T00:59:16;15.67;;;11.27;;
59492;SDS011;45497;43.996;22.876;2022-12-26T01:01:41;11.93;;;6.63;;
59492;SDS011;45497;43.996;22.876;2022-12-26T01:04:07;10.82;;;6.57;;
59492;SDS011;45497;43.996;22.876;2022-12-26T01:06:32;14.13;;;7.37;;
59492;SDS011;45497;43.996;22.876;2022-12-26T01:08:57;13.83;;;8.23;;
59492;SDS011;45497;43.996;22.876;2022-12-26T01:11:23;10.48;;;7.20;;
59492;SDS011;45497;43.996;22.876;2022-12-26T01:14:08;10.70;;;5.38;;
59492;SDS011;45497;43.996;22.876;2022-12-26T01:16:39;8.05;;;5.47;;
59492;SDS011;45497;43.996;22.876;2022-12-26T01:19:05;8.23;;;5.25;;
59492;SDS011;45497;43.996;22.876;2022-12-26T01:21:31;9.85;;;6.25;;
59492;SDS011;45497;43.996;22.876;2022-12-26T01:23:57;10.43;;;6.00;;
59492;SDS011;45497;43.996;22.876;2022-12-26T01:26:22;8.83;;;5.90;;
59492;SDS011;45497;43.996;22.876;2022-12-26T01:28:48;12.60;;;7.80;;
59492;SDS011;45497;43.996;22.876;2022-12-26T01:31:14;12.55;;;7.20;;
59492;SDS011;45497;43.996;22.876;2022-12-26T01:33:40;10.32;;;5.90;;
59492;SDS011;45497;43.996;22.876;2022-12-26T01:36:05;13.07;;;7.80;;
59492;SDS011;45497;43.996;22.876;2022-12-26T01:38:31;17.67;;;8.40;;
59492;SDS011;45497;43.996;22.876;2022-12-26T01:40:56;14.77;;;9.27;;
59492;SDS011;45497;43.996;22.876;2022-12-26T01:46:12;12.85;;;8.80;;
59492;SDS011;45497;43.996;22.876;2022-12-26T01:48:39;15.05;;;9.18;;
59492;SDS011;45497;43.996;22.876;2022-12-26T01:51:04;13.88;;;8.80;;
59492;SDS011;45497;43.996;22.876;2022-12-26T01:53:41;13.05;;;7.55;;
59492;SDS011;45497;43.996;22.876;2022-12-26T01:56:11;12.00;;;7.53;;
59492;SDS011;45497;43.996;22.876;2022-12-26T01:58:44;13.02;;;7.80;;
59492;SDS011;45497;43.996;22.876;2022-12-26T02:01:15;12.80;;;8.25;;
59492;SDS011;45497;43.996;22.876;2022-12-26T02:03:42;16.47;;;9.90;;
59492;SDS011;45497;43.996;22.876;2022-12-26T02:06:28;17.55;;;10.30;;
59492;SDS011;45497;43.996;22.876;2022-12-26T02:08:54;17.23;;;11.25;;
59492;SDS011;45497;43.996;22.876;2022-12-26T02:11:26;18.30;;;11.68;;
59492;SDS011;45497;43.996;22.876;2022-12-26T02:13:57;20.48;;;12.52;;
59492;SDS011;45497;43.996;22.876;2022-12-26T02:16:24;20.70;;;12.23;;
59492;SDS011;45497;43.996;22.876;2022-12-26T02:18:49;21.17;;;13.68;;
59492;SDS011;45497;43.996;22.876;2022-12-26T02:27:34;19.92;;;11.15;;
59492;SDS011;45497;43.996;22.876;2022-12-26T02:30:27;23.10;;;13.93;;
59492;SDS011;45497;43.996;22.876;2022-12-26T02:38:40;20.33;;;12.67;;
59492;SDS011;45497;43.996;22.876;2022-12-26T02:46:17;19.33;;;12.53;;
59492;SDS011;45497;43.996;22.876;2022-12-26T02:49:27;22.85;;;13.57;;
59492;SDS011;45497;43.996;22.876;2022-12-26T02:52:30;24.60;;;16.05;;
59492;SDS011;45497;43.996;22.876;2022-12-26T02:55:33;25.05;;;17.40;;
59492;SDS011;45497;43.996;22.876;2022-12-26T02:58:22;21.48;;;15.18;;
59492;SDS011;45497;43.996;22.876;2022-12-26T03:01:16;22.40;;;15.68;;
59492;SDS011;45497;43.996;22.876;2022-12-26T03:04:08;27.90;;;16.38;;
59492;SDS011;45497;43.996;22.876;2022-12-26T03:06:57;60.22;;;37.42;;
59492;SDS011;45497;43.996;22.876;2022-12-26T03:09:44;70.30;;;43.97;;
59492;SDS011;45497;43.996;22.876;2022-12-26T03:12:37;45.92;;;33.92;;
59492;SDS011;45497;43.996;22.876;2022-12-26T03:15:23;39.85;;;35.45;;
59492;SDS011;45497;43.996;22.876;2022-12-26T03:17:53;28.25;;;20.88;;
59492;SDS011;45497;43.996;22.876;2022-12-26T03:20:32;92.07;;;44.53;;
59492;SDS011;45497;43.996;22.876;2022-12-26T03:23:11;102.67;;;46.67;;
59492;SDS011;45497;43.996;22.876;2022-12-26T03:25:49;92.10;;;41.47;;
59492;SDS011;45497;43.996;22.876;2022-12-26T03:28:40;33.33;;;24.75;;
59492;SDS011;45497;43.996;22.876;2022-12-26T03:31:08;38.35;;;20.30;;
59492;SDS011;45497;43.996;22.876;2022-12-26T03:33:40;39.10;;;19.98;;
59492;SDS011;45497;43.996;22.876;2022-12-26T03:39:38;26.85;;;15.32;;
59492;SDS011;45497;43.996;22.876;2022-12-26T03:54:53;16.67;;;8.95;;
59492;SDS011;45497;43.996;22.876;2022-12-26T03:57:40;15.30;;;9.13;;
59492;SDS011;45497;43.996;22.876;2022-12-26T04:00:42;18.27;;;10.05;;
59492;SDS011;45497;43.996;22.876;2022-12-26T04:03:30;15.98;;;8.98;;
59492;SDS011;45497;43.996;22.876;2022-12-26T04:06:18;14.80;;;7.85;;
59492;SDS011;45497;43.996;22.876;2022-12-26T04:09:14;12.95;;;7.50;;
59492;SDS011;45497;43.996;22.876;2022-12-26T04:12:05;9.35;;;6.25;;
59492;SDS011;45497;43.996;22.876;2022-12-26T04:14:57;9.13;;;5.88;;
59492;SDS011;45497;43.996;22.876;2022-12-26T04:17:59;24.33;;;12.48;;
59492;SDS011;45497;43.996;22.876;2022-12-26T04:24:02;22.90;;;10.45;;
59492;SDS011;45497;43.996;22.876;2022-12-26T04:27:02;9.73;;;5.72;;
59492;SDS011;45497;43.996;22.876;2022-12-26T04:29:49;10.00;;;6.22;;
59492;SDS011;45497;43.996;22.876;2022-12-26T04:38:55;15.57;;;9.77;;
59492;SDS011;45497;43.996;22.876;2022-12-26T04:41:44;14.10;;;9.55;;
59492;SDS011;45497;43.996;22.876;2022-12-26T04:44:29;18.88;;;14.68;;
59492;SDS011;45497;43.996;22.876;2022-12-26T04:46:56;16.27;;;12.27;;
59492;SDS011;45497;43.996;22.876;2022-12-26T04:49:22;22.53;;;16.40;;
59492;SDS011;45497;43.996;22.876;2022-12-26T04:52:07;31.65;;;28.23;;
59492;SDS011;45497;43.996;22.876;2022-12-26T04:54:35;50.83;;;46.60;;
59492;SDS011;45497;43.996;22.876;2022-12-26T04:57:01;22.47;;;20.17;;
59492;SDS011;45497;43.996;22.876;2022-12-26T04:59:27;31.42;;;28.48;;
59492;SDS011;45497;43.996;22.876;2022-12-26T05:01:53;16.90;;;13.05;;
59492;SDS011;45497;43.996;22.876;2022-12-26T05:04:37;14.98;;;10.60;;
59492;SDS011;45497;43.996;22.876;2022-12-26T05:07:23;19.40;;;10.13;;
59492;SDS011;45497;43.996;22.876;2022-12-26T05:10:16;16.27;;;12.95;;
59492;SDS011;45497;43.996;22.876;2022-12-26T05:12:44;33.30;;;18.55;;
59492;SDS011;45497;43.996;22.876;2022-12-26T05:15:09;47.28;;;39.47;;
59492;SDS011;45497;43.996;22.876;2022-12-26T05:17:35;42.05;;;29.00;;
59492;SDS011;45497;43.996;22.876;2022-12-26T05:20:20;88.65;;;60.25;;
59492;SDS011;45497;43.996;22.876;2022-12-26T05:22:54;71.57;;;50.50;;
59492;SDS011;45497;43.996;22.876;2022-12-26T05:25:39;51.60;;;37.22;;
59492;SDS011;45497;43.996;22.876;2022-12-26T05:28:24;30.85;;;23.35;;
59492;SDS011;45497;43.996;22.876;2022-12-26T05:31:05;18.75;;;12.93;;
59492;SDS011;45497;43.996;22.876;2022-12-26T05:33:32;29.27;;;23.03;;
59492;SDS011;45497;43.996;22.876;2022-12-26T05:36:16;28.80;;;22.40;;
59492;SDS011;45497;43.996;22.876;2022-12-26T05:38:44;23.92;;;16.10;;
59492;SDS011;45497;43.996;22.876;2022-12-26T05:41:10;21.33;;;15.83;;
59492;SDS011;45497;43.996;22.876;2022-12-26T05:43:35;18.17;;;13.13;;
59492;SDS011;45497;43.996;22.876;2022-12-26T05:46:01;21.17;;;15.60;;
59492;SDS011;45497;43.996;22.876;2022-12-26T05:48:26;48.15;;;41.85;;
59492;SDS011;45497;43.996;22.876;2022-12-26T05:50:52;32.38;;;25.70;;
59492;SDS011;45497;43.996;22.876;2022-12-26T05:53:22;28.87;;;22.03;;
59492;SDS011;45497;43.996;22.876;2022-12-26T05:55:48;30.03;;;21.10;;
59492;SDS011;45497;43.996;22.876;2022-12-26T05:58:13;28.50;;;19.53;;
59492;SDS011;45497;43.996;22.876;2022-12-26T06:00:39;22.70;;;18.52;;
59492;SDS011;45497;43.996;22.876;2022-12-26T06:03:04;27.43;;;18.93;;
59492;SDS011;45497;43.996;22.876;2022-12-26T06:05:30;48.17;;;33.63;;
59492;SDS011;45497;43.996;22.876;2022-12-26T06:07:55;67.83;;;47.77;;
59492;SDS011;45497;43.996;22.876;2022-12-26T06:10:21;29.73;;;23.40;;
59492;SDS011;45497;43.996;22.876;2022-12-26T06:12:46;38.73;;;26.73;;
59492;SDS011;45497;43.996;22.876;2022-12-26T06:15:12;20.97;;;15.40;;
59492;SDS011;45497;43.996;22.876;2022-12-26T06:17:37;17.90;;;12.50;;
59492;SDS011;45497;43.996;22.876;2022-12-26T06:20:03;24.35;;;16.75;;
59492;SDS011;45497;43.996;22.876;2022-12-26T06:22:30;15.52;;;9.35;;
59492;SDS011;45497;43.996;22.876;2022-12-26T06:24:55;13.90;;;9.20;;
59492;SDS011;45497;43.996;22.876;2022-12-26T06:27:21;16.17;;;11.70;;
59492;SDS011;45497;43.996;22.876;2022-12-26T06:29:47;15.73;;;10.85;;
59492;SDS011;45497;43.996;22.876;2022-12-26T06:32:12;17.63;;;10.65;;
59492;SDS011;45497;43.996;22.876;2022-12-26T06:34:38;21.52;;;14.30;;
59492;SDS011;45497;43.996;22.876;2022-12-26T06:37:03;22.30;;;16.80;;
59492;SDS011;45497;43.996;22.876;2022-12-26T06:39:29;24.80;;;16.43;;
59492;SDS011;45497;43.996;22.876;2022-12-26T06:41:54;33.10;;;22.40;;
59492;SDS011;45497;43.996;22.876;2022-12-26T06:44:20;52.20;;;35.37;;
59492;SDS011;45497;43.996;22.876;2022-12-26T06:46:45;39.42;;;25.27;;
59492;SDS011;45497;43.996;22.876;2022-12-26T06:49:11;28.97;;;19.33;;
59492;SDS011;45497;43.996;22.876;2022-12-26T06:51:36;28.37;;;19.27;;
59492;SDS011;45497;43.996;22.876;2022-12-26T06:54:02;34.77;;;23.30;;
59492;SDS011;45497;43.996;22.876;2022-12-26T06:56:28;33.90;;;20.23;;
59492;SDS011;45497;43.996;22.876;2022-12-26T06:58:55;26.75;;;19.02;;
59492;SDS011;45497;43.996;22.876;2022-12-26T07:01:22;23.73;;;17.67;;
59492;SDS011;45497;43.996;22.876;2022-12-26T07:03:50;31.88;;;21.05;;
59492;SDS011;45497;43.996;22.876;2022-12-26T07:08:59;33.03;;;20.40;;
59492;SDS011;45497;43.996;22.876;2022-12-26T07:11:38;32.13;;;21.75;;
59492;SDS011;45497;43.996;22.876;2022-12-26T07:14:05;202.93;;;125.72;;
59492;SDS011;45497;43.996;22.876;2022-12-26T07:16:35;38.65;;;26.48;;
59492;SDS011;45497;43.996;22.876;2022-12-26T07:19:03;33.47;;;24.27;;
59492;SDS011;45497;43.996;22.876;2022-12-26T07:21:29;47.72;;;34.55;;
59492;SDS011;45497;43.996;22.876;2022-12-26T07:23:55;48.20;;;33.47;;
59492;SDS011;45497;43.996;22.876;2022-12-26T07:26:21;39.85;;;29.17;;
59492;SDS011;45497;43.996;22.876;2022-12-26T07:28:48;55.80;;;42.63;;
59492;SDS011;45497;43.996;22.876;2022-12-26T07:31:17;43.78;;;34.65;;
59492;SDS011;45497;43.996;22.876;2022-12-26T07:33:47;41.25;;;32.00;;
59492;SDS011;45497;43.996;22.876;2022-12-26T07:36:16;34.20;;;25.63;;
59492;SDS011;45497;43.996;22.876;2022-12-26T07:38:42;35.93;;;27.13;;
59492;SDS011;45497;43.996;22.876;2022-12-26T07:41:08;52.87;;;32.10;;
59492;SDS011;45497;43.996;22.876;2022-12-26T07:43:52;45.95;;;26.50;;
59492;SDS011;45497;43.996;22.876;2022-12-26T07:46:17;43.20;;;26.83;;
59492;SDS011;45497;43.996;22.876;2022-12-26T07:48:43;38.72;;;25.95;;
59492;SDS011;45497;43.996;22.876;2022-12-26T07:51:09;41.85;;;27.25;;
59492;SDS011;45497;43.996;22.876;2022-12-26T07:53:35;42.60;;;27.70;;
59492;SDS011;45497;43.996;22.876;2022-12-26T07:56:00;39.97;;;25.95;;
59492;SDS011;45497;43.996;22.876;2022-12-26T07:58:26;27.35;;;19.95;;
59492;SDS011;45497;43.996;22.876;2022-12-26T08:00:52;27.80;;;18.77;;
59492;SDS011;45497;43.996;22.876;2022-12-26T08:03:17;31.93;;;22.43;;
59492;SDS011;45497;43.996;22.876;2022-12-26T08:05:44;24.43;;;17.17;;
59492;SDS011;45497;43.996;22.876;2022-12-26T08:08:13;23.85;;;16.73;;
59492;SDS011;45497;43.996;22.876;2022-12-26T08:10:38;23.98;;;17.77;;
59492;SDS011;45497;43.996;22.876;2022-12-26T08:13:04;22.58;;;16.27;;
59492;SDS011;45497;43.996;22.876;2022-12-26T08:15:29;33.60;;;22.20;;
59492;SDS011;45497;43.996;22.876;2022-12-26T08:17:55;31.97;;;22.87;;
59492;SDS011;45497;43.996;22.876;2022-12-26T08:20:20;33.83;;;23.13;;
59492;SDS011;45497;43.996;22.876;2022-12-26T08:22:46;37.67;;;25.42;;
59492;SDS011;45497;43.996;22.876;2022-12-26T08:25:11;40.70;;;28.73;;
59492;SDS011;45497;43.996;22.876;2022-12-26T08:27:37;43.67;;;31.43;;
59492;SDS011;45497;43.996;22.876;2022-12-26T08:30:03;46.57;;;31.53;;
59492;SDS011;45497;43.996;22.876;2022-12-26T08:32:29;42.67;;;30.67;;
59492;SDS011;45497;43.996;22.876;2022-12-26T08:34:54;44.83;;;31.40;;
59492;SDS011;45497;43.996;22.876;2022-12-26T08:37:20;43.90;;;30.57;;
59492;SDS011;45497;43.996;22.876;2022-12-26T08:39:48;41.08;;;27.88;;
59492;SDS011;45497;43.996;22.876;2022-12-26T08:42:13;37.50;;;26.58;;
59492;SDS011;45497;43.996;22.876;2022-12-26T08:44:39;36.37;;;26.93;;
59492;SDS011;45497;43.996;22.876;2022-12-26T08:47:04;39.47;;;27.30;;
59492;SDS011;45497;43.996;22.876;2022-12-26T08:49:30;35.70;;;24.50;;
59492;SDS011;45497;43.996;22.876;2022-12-26T08:51:57;35.05;;;23.90;;
59492;SDS011;45497;43.996;22.876;2022-12-26T08:54:23;24.63;;;18.65;;
59492;SDS011;45497;43.996;22.876;2022-12-26T08:56:48;30.80;;;18.83;;
59492;SDS011;45497;43.996;22.876;2022-12-26T08:59:14;24.53;;;16.87;;
59492;SDS011;45497;43.996;22.876;2022-12-26T09:01:39;24.17;;;17.00;;
59492;SDS011;45497;43.996;22.876;2022-12-26T09:04:05;21.70;;;15.47;;
59492;SDS011;45497;43.996;22.876;2022-12-26T09:06:34;24.70;;;16.10;;
59492;SDS011;45497;43.996;22.876;2022-12-26T09:09:02;22.05;;;16.02;;
59492;SDS011;45497;43.996;22.876;2022-12-26T09:11:28;20.27;;;15.20;;
59492;SDS011;45497;43.996;22.876;2022-12-26T09:13:55;21.42;;;14.68;;
59492;SDS011;45497;43.996;22.876;2022-12-26T09:16:24;20.73;;;14.77;;
59492;SDS011;45497;43.996;22.876;2022-12-26T09:18:54;21.00;;;14.80;;
59492;SDS011;45497;43.996;22.876;2022-12-26T09:21:21;21.67;;;14.73;;
59492;SDS011;45497;43.996;22.876;2022-12-26T09:23:47;18.48;;;13.60;;
59492;SDS011;45497;43.996;22.876;2022-12-26T09:26:14;24.15;;;14.30;;
59492;SDS011;45497;43.996;22.876;2022-12-26T09:28:41;21.80;;;14.65;;
59492;SDS011;45497;43.996;22.876;2022-12-26T09:31:15;25.23;;;15.23;;
59492;SDS011;45497;43.996;22.876;2022-12-26T09:33:43;23.15;;;14.48;;
59492;SDS011;45497;43.996;22.876;2022-12-26T09:36:09;27.83;;;14.48;;
59492;SDS011;45497;43.996;22.876;2022-12-26T09:38:36;19.58;;;13.65;;
59492;SDS011;45497;43.996;22.876;2022-12-26T09:46:29;21.75;;;14.57;;
59492;SDS011;45497;43.996;22.876;2022-12-26T09:49:09;23.58;;;15.90;;
59492;SDS011;45497;43.996;22.876;2022-12-26T09:51:35;23.13;;;16.67;;
59492;SDS011;45497;43.996;22.876;2022-12-26T09:54:04;24.27;;;16.60;;
59492;SDS011;45497;43.996;22.876;2022-12-26T09:56:32;23.50;;;17.05;;
59492;SDS011;45497;43.996;22.876;2022-12-26T09:59:04;29.42;;;17.80;;
59492;SDS011;45497;43.996;22.876;2022-12-26T10:01:37;25.73;;;18.05;;
59492;SDS011;45497;43.996;22.876;2022-12-26T10:04:08;28.05;;;20.58;;
59492;SDS011;45497;43.996;22.876;2022-12-26T10:06:46;27.75;;;18.88;;
59492;SDS011;45497;43.996;22.876;2022-12-26T10:17:02;39.65;;;25.38;;
59492;SDS011;45497;43.996;22.876;2022-12-26T10:24:59;30.08;;;20.35;;
59492;SDS011;45497;43.996;22.876;2022-12-26T10:27:27;33.83;;;23.27;;
59492;SDS011;45497;43.996;22.876;2022-12-26T10:30:01;28.83;;;19.88;;
59492;SDS011;45497;43.996;22.876;2022-12-26T10:32:32;26.33;;;18.90;;
59492;SDS011;45497;43.996;22.876;2022-12-26T10:35:17;26.50;;;19.08;;
59492;SDS011;45497;43.996;22.876;2022-12-26T10:38:08;26.88;;;18.83;;
59492;SDS011;45497;43.996;22.876;2022-12-26T10:40:40;33.22;;;20.40;;
59492;SDS011;45497;43.996;22.876;2022-12-26T10:48:36;32.38;;;20.75;;
59492;SDS011;45497;43.996;22.876;2022-12-26T10:51:02;30.80;;;21.25;;
59492;SDS011;45497;43.996;22.876;2022-12-26T10:53:27;30.47;;;21.83;;
59492;SDS011;45497;43.996;22.876;2022-12-26T10:55:53;31.03;;;22.00;;
59492;SDS011;45497;43.996;22.876;2022-12-26T11:00:54;32.00;;;21.48;;
59492;SDS011;45497;43.996;22.876;2022-12-26T11:03:19;33.50;;;23.17;;
59492;SDS011;45497;43.996;22.876;2022-12-26T11:08:17;30.77;;;21.75;;
59492;SDS011;45497;43.996;22.876;2022-12-26T11:16:26;29.35;;;21.85;;
59492;SDS011;45497;43.996;22.876;2022-12-26T11:19:01;32.15;;;22.75;;
59492;SDS011;45497;43.996;22.876;2022-12-26T11:21:28;31.43;;;21.50;;
59492;SDS011;45497;43.996;22.876;2022-12-26T11:26:34;41.17;;;25.90;;
59492;SDS011;45497;43.996;22.876;2022-12-26T11:29:08;33.58;;;22.75;;
59492;SDS011;45497;43.996;22.876;2022-12-26T11:31:56;32.45;;;22.30;;
59492;SDS011;45497;43.996;22.876;2022-12-26T11:36:58;40.10;;;24.88;;
59492;SDS011;45497;43.996;22.876;2022-12-26T11:39:27;84.25;;;40.50;;
59492;SDS011;45497;43.996;22.876;2022-12-26T11:41:57;25.52;;;17.85;;
59492;SDS011;45497;43.996;22.876;2022-12-26T11:46:58;22.45;;;15.85;;
59492;SDS011;45497;43.996;22.876;2022-12-26T12:00:37;23.52;;;16.52;;
59492;SDS011;45497;43.996;22.876;2022-12-26T12:08:44;20.63;;;15.27;;
59492;SDS011;45497;43.996;22.876;2022-12-26T12:14:14;41.15;;;37.42;;
59492;SDS011;45497;43.996;22.876;2022-12-26T12:25:24;32.50;;;26.05;;
59492;SDS011;45497;43.996;22.876;2022-12-26T12:27:58;32.47;;;26.17;;
59492;SDS011;45497;43.996;22.876;2022-12-26T12:30:30;28.55;;;20.33;;
59492;SDS011;45497;43.996;22.876;2022-12-26T12:33:04;30.07;;;26.73;;
59492;SDS011;45497;43.996;22.876;2022-12-26T12:40:58;24.25;;;16.08;;
59492;SDS011;45497;43.996;22.876;2022-12-26T12:51:59;21.85;;;14.10;;
59492;SDS011;45497;43.996;22.876;2022-12-26T12:57:55;24.95;;;19.17;;
59492;SDS011;45497;43.996;22.876;2022-12-26T13:00:27;22.30;;;19.03;;
59492;SDS011;45497;43.996;22.876;2022-12-26T13:10:51;26.33;;;18.05;;
59492;SDS011;45497;43.996;22.876;2022-12-26T13:16:04;33.55;;;30.33;;
59492;SDS011;45497;43.996;22.876;2022-12-26T13:18:38;20.00;;;15.57;;
59492;SDS011;45497;43.996;22.876;2022-12-26T13:21:09;20.75;;;17.17;;
59492;SDS011;45497;43.996;22.876;2022-12-26T13:26:27;24.35;;;17.88;;
59492;SDS011;45497;43.996;22.876;2022-12-26T13:29:19;24.42;;;19.08;;
59492;SDS011;45497;43.996;22.876;2022-12-26T13:31:51;25.30;;;17.10;;
59492;SDS011;45497;43.996;22.876;2022-12-26T13:34:17;22.57;;;16.47;;
59492;SDS011;45497;43.996;22.876;2022-12-26T13:36:48;23.13;;;16.52;;
59492;SDS011;45497;43.996;22.876;2022-12-26T13:41:48;26.67;;;19.63;;
59492;SDS011;45497;43.996;22.876;2022-12-26T13:44:36;26.57;;;17.43;;
59492;SDS011;45497;43.996;22.876;2022-12-26T13:47:02;23.70;;;17.50;;
59492;SDS011;45497;43.996;22.876;2022-12-26T13:49:29;23.00;;;16.97;;
59492;SDS011;45497;43.996;22.876;2022-12-26T13:54:36;22.27;;;18.30;;
59492;SDS011;45497;43.996;22.876;2022-12-26T13:59:42;24.43;;;17.10;;
59492;SDS011;45497;43.996;22.876;2022-12-26T14:02:37;22.05;;;16.58;;
59492;SDS011;45497;43.996;22.876;2022-12-26T14:13:30;23.42;;;16.52;;
59492;SDS011;45497;43.996;22.876;2022-12-26T14:21:32;24.65;;;17.33;;
59492;SDS011;45497;43.996;22.876;2022-12-26T14:29:37;22.00;;;14.73;;
59492;SDS011;45497;43.996;22.876;2022-12-26T14:32:32;30.47;;;16.83;;
59492;SDS011;45497;43.996;22.876;2022-12-26T14:37:54;27.88;;;18.63;;
59492;SDS011;45497;43.996;22.876;2022-12-26T14:40:30;33.03;;;22.50;;
59492;SDS011;45497;43.996;22.876;2022-12-26T14:45:42;38.25;;;23.67;;
59492;SDS011;45497;43.996;22.876;2022-12-26T14:50:44;36.30;;;27.23;;
59492;SDS011;45497;43.996;22.876;2022-12-26T14:55:55;27.03;;;21.97;;
59492;SDS011;45497;43.996;22.876;2022-12-26T15:14:03;51.67;;;30.77;;
59492;SDS011;45497;43.996;22.876;2022-12-26T15:22:38;40.15;;;30.13;;
59492;SDS011;45497;43.996;22.876;2022-12-26T15:25:38;49.53;;;38.37;;
59492;SDS011;45497;43.996;22.876;2022-12-26T15:31:07;29.90;;;22.17;;
59492;SDS011;45497;43.996;22.876;2022-12-26T15:36:49;29.50;;;19.77;;
59492;SDS011;45497;43.996;22.876;2022-12-26T15:42:19;24.63;;;16.98;;
59492;SDS011;45497;43.996;22.876;2022-12-26T15:47:51;22.08;;;16.35;;
59492;SDS011;45497;43.996;22.876;2022-12-26T16:01:44;136.63;;;77.28;;
59492;SDS011;45497;43.996;22.876;2022-12-26T16:04:32;178.52;;;98.72;;
59492;SDS011;45497;43.996;22.876;2022-12-26T16:09:49;131.27;;;70.00;;
59492;SDS011;45497;43.996;22.876;2022-12-26T16:14:47;491.03;;;228.90;;
59492;SDS011;45497;43.996;22.876;2022-12-26T16:19:42;232.20;;;129.93;;
59492;SDS011;45497;43.996;22.876;2022-12-26T16:22:54;112.82;;;62.53;;
59492;SDS011;45497;43.996;22.876;2022-12-26T16:25:20;129.77;;;70.05;;
59492;SDS011;45497;43.996;22.876;2022-12-26T16:27:49;95.43;;;58.27;;
59492;SDS011;45497;43.996;22.876;2022-12-26T16:30:19;239.07;;;123.35;;
59492;SDS011;45497;43.996;22.876;2022-12-26T16:32:46;122.05;;;70.68;;
59492;SDS011;45497;43.996;22.876;2022-12-26T16:35:23;44.33;;;30.63;;
59492;SDS011;45497;43.996;22.876;2022-12-26T16:37:52;60.58;;;42.58;;
59492;SDS011;45497;43.996;22.876;2022-12-26T16:40:21;97.85;;;65.95;;
59492;SDS011;45497;43.996;22.876;2022-12-26T16:42:54;91.40;;;60.35;;
59492;SDS011;45497;43.996;22.876;2022-12-26T16:45:23;101.32;;;65.03;;
59492;SDS011;45497;43.996;22.876;2022-12-26T16:47:49;101.63;;;65.55;;
59492;SDS011;45497;43.996;22.876;2022-12-26T16:50:16;89.82;;;57.28;;
59492;SDS011;45497;43.996;22.876;2022-12-26T16:52:47;82.88;;;56.03;;
59492;SDS011;45497;43.996;22.876;2022-12-26T16:58:10;90.97;;;57.00;;
59492;SDS011;45497;43.996;22.876;2022-12-26T17:00:39;92.93;;;56.03;;
59492;SDS011;45497;43.996;22.876;2022-12-26T17:03:22;94.43;;;57.10;;
59492;SDS011;45497;43.996;22.876;2022-12-26T17:05:52;93.43;;;53.60;;
59492;SDS011;45497;43.996;22.876;2022-12-26T17:08:17;90.57;;;58.37;;
59492;SDS011;45497;43.996;22.876;2022-12-26T17:10:47;118.00;;;74.78;;
59492;SDS011;45497;43.996;22.876;2022-12-26T17:13:19;237.95;;;113.40;;
59492;SDS011;45497;43.996;22.876;2022-12-26T17:15:50;805.30;;;361.23;;
59492;SDS011;45497;43.996;22.876;2022-12-26T17:20:54;408.00;;;172.63;;
59492;SDS011;45497;43.996;22.876;2022-12-26T17:23:31;270.15;;;125.88;;
59492;SDS011;45497;43.996;22.876;2022-12-26T17:28:48;187.32;;;97.53;;
59492;SDS011;45497;43.996;22.876;2022-12-26T17:31:19;210.88;;;114.78;;
59492;SDS011;45497;43.996;22.876;2022-12-26T17:33:56;218.80;;;115.95;;
59492;SDS011;45497;43.996;22.876;2022-12-26T17:36:24;181.85;;;99.60;;
59492;SDS011;45497;43.996;22.876;2022-12-26T17:38:51;171.52;;;101.30;;
59492;SDS011;45497;43.996;22.876;2022-12-26T17:41:17;140.75;;;82.95;;
59492;SDS011;45497;43.996;22.876;2022-12-26T17:43:44;203.63;;;118.32;;
59492;SDS011;45497;43.996;22.876;2022-12-26T17:46:11;386.75;;;191.88;;
59492;SDS011;45497;43.996;22.876;2022-12-26T17:48:38;353.67;;;181.48;;
59492;SDS011;45497;43.996;22.876;2022-12-26T17:51:05;157.50;;;97.43;;
59492;SDS011;45497;43.996;22.876;2022-12-26T17:53:36;165.45;;;110.00;;
59492;SDS011;45497;43.996;22.876;2022-12-26T17:56:14;154.85;;;78.57;;
59492;SDS011;45497;43.996;22.876;2022-12-26T17:58:41;177.63;;;87.38;;
59492;SDS011;45497;43.996;22.876;2022-12-26T18:01:07;187.10;;;90.97;;
59492;SDS011;45497;43.996;22.876;2022-12-26T18:03:33;106.25;;;62.67;;
59492;SDS011;45497;43.996;22.876;2022-12-26T18:05:58;113.00;;;67.87;;
59492;SDS011;45497;43.996;22.876;2022-12-26T18:10:57;114.37;;;66.73;;
59492;SDS011;45497;43.996;22.876;2022-12-26T18:13:24;92.40;;;60.22;;
59492;SDS011;45497;43.996;22.876;2022-12-26T18:15:50;122.78;;;76.88;;
59492;SDS011;45497;43.996;22.876;2022-12-26T18:18:22;128.82;;;84.22;;
59492;SDS011;45497;43.996;22.876;2022-12-26T18:20:48;103.73;;;68.17;;
59492;SDS011;45497;43.996;22.876;2022-12-26T18:23:14;119.45;;;79.45;;
59492;SDS011;45497;43.996;22.876;2022-12-26T18:25:40;81.60;;;53.47;;
59492;SDS011;45497;43.996;22.876;2022-12-26T18:28:09;77.32;;;52.95;;
59492;SDS011;45497;43.996;22.876;2022-12-26T18:30:36;71.60;;;50.63;;
59492;SDS011;45497;43.996;22.876;2022-12-26T18:33:01;76.73;;;50.73;;
59492;SDS011;45497;43.996;22.876;2022-12-26T18:35:27;76.23;;;51.40;;
59492;SDS011;45497;43.996;22.876;2022-12-26T18:37:53;84.70;;;56.40;;
59492;SDS011;45497;43.996;22.876;2022-12-26T18:40:22;87.88;;;61.53;;
59492;SDS011;45497;43.996;22.876;2022-12-26T18:42:51;115.10;;;82.55;;